Downey, Iowa
Current Conditions -  °F | °C
As of 10:52 AM on Tuesday 21 Oct 2014 (Local Time) from KIOW Reporting Station
Clear Clear  
Wind Chill: 55°   Ceiling: Unl
Heat Index: 55°   Visibility: 10mi
Dew Point: 43°   Wind: 7mph
Humidity: 64%   Direction: 60°ENE
Pressure: 30.21"   Gusts: NA
Location:  41.6714°N, 91.2723°W
Report Text: KIOW 211552Z AUTO 06006KT 10SM CLR 13/06 A3021 RMK AO2 SLP231 T01280061
Loading
Personal Weather Stations






























Interactive Weather Map
Tropical Storm Tracking
New forecast layout! Learn more

10-Day Weather Forecast

Advertisements
Track Severe Weather on mobile